Time;durP1;ratioP1;P1;durP2;ratioP2;P2;SDS_P1;SDS_P2;PMS_P1;PMS_P2;Temp;Humidity;BMP_temperature;BMP_pressure;BME280_temperature;BME280_humidity;BME280_pressure;Samples;Min_cycle;Max_cycle;Signal;HPM_P1;HPM_P2
2021/06/05 00:00:00;;;;;;;6.13;4.50;;;;;;;17.66;100.00;100701.03;5037062;28;20136;-60
2021/06/05 00:02:29;;;;;;;4.80;3.90;;;;;;;17.69;100.00;100698.13;5044027;28;20059;-60
2021/06/05 00:04:59;;;;;;;5.75;4.55;;;;;;;17.70;100.00;100690.00;5026095;28;20428;-62
2021/06/05 00:07:27;;;;;;;4.95;4.20;;;;;;;17.67;100.00;100690.19;5034640;28;20076;-62
2021/06/05 00:09:54;;;;;;;6.15;3.90;;;;;;;17.60;100.00;100688.06;5036504;28;20090;-62
2021/06/05 00:12:24;;;;;;;6.78;4.32;;;;;;;17.54;100.00;100687.53;5049350;28;20058;-61
2021/06/05 00:14:51;;;;;;;7.95;4.45;;;;;;;17.57;100.00;100696.31;5039799;28;20080;-61
2021/06/05 00:17:18;;;;;;;5.88;4.53;;;;;;;17.53;100.00;100693.84;5036796;28;20044;-60
2021/06/05 00:19:44;;;;;;;5.32;4.30;;;;;;;17.54;100.00;100695.56;5034935;28;20056;-59
2021/06/05 00:22:11;;;;;;;6.57;4.05;;;;;;;17.54;100.00;100703.59;5039781;28;20436;-62
2021/06/05 00:24:40;;;;;;;6.88;4.78;;;;;;;17.52;100.00;100701.97;5036855;28;20052;-60
2021/06/05 00:27:07;;;;;;;6.95;5.00;;;;;;;17.53;100.00;100696.50;5035900;28;20053;-64
2021/06/05 00:29:33;;;;;;;6.70;5.78;;;;;;;17.60;100.00;100707.66;5037996;28;20048;-64
2021/06/05 00:32:00;;;;;;;8.38;6.30;;;;;;;17.62;100.00;100716.44;5038838;28;20045;-60
2021/06/05 00:34:27;;;;;;;8.55;5.80;;;;;;;17.62;100.00;100711.09;5032836;28;20056;-62
2021/06/05 00:36:54;;;;;;;6.95;5.55;;;;;;;17.59;100.00;100711.31;5030490;28;20496;-60
2021/06/05 00:39:20;;;;;;;7.80;5.85;;;;;;;17.57;100.00;100721.25;5041128;28;20057;-61
2021/06/05 00:41:47;;;;;;;5.78;5.20;;;;;;;17.56;100.00;100718.69;5034209;28;20053;-61
2021/06/05 00:44:14;;;;;;;8.95;5.45;;;;;;;17.49;100.00;100710.22;5035932;28;20056;-60
2021/06/05 00:46:41;;;;;;;6.95;4.70;;;;;;;17.43;100.00;100718.69;5038083;28;20044;-62
2021/06/05 00:49:09;;;;;;;4.15;3.75;;;;;;;17.39;100.00;100723.41;5029367;28;20049;-60
2021/06/05 00:51:49;;;;;;;4.75;3.67;;;;;;;17.36;100.00;100734.31;5035586;28;20057;-64
2021/06/05 00:54:18;;;;;;;7.90;4.30;;;;;;;17.35;100.00;100734.44;5034126;28;20053;-59
2021/06/05 00:56:51;;;;;;;5.82;3.88;;;;;;;17.37;100.00;100748.56;5036402;28;20045;-60
2021/06/05 00:59:18;;;;;;;7.47;4.47;;;;;;;17.33;100.00;100752.41;5036802;28;20071;-60
2021/06/05 01:01:44;;;;;;;3.97;3.58;;;;;;;17.29;100.00;100753.63;5040505;28;20045;-61
2021/06/05 01:04:11;;;;;;;4.18;3.42;;;;;;;17.27;100.00;100751.03;5030334;28;20198;-64
2021/06/05 01:06:59;;;;;;;3.47;3.17;;;;;;;17.24;100.00;100750.38;5034583;28;20422;-61
2021/06/05 01:10:07;;;;;;;4.18;3.00;;;;;;;17.15;100.00;100743.84;5034514;28;20088;-61
2021/06/05 01:12:47;;;;;;;4.57;3.08;;;;;;;17.13;100.00;100743.09;4955696;28;20644;-60
2021/06/05 01:15:20;;;;;;;5.05;3.60;;;;;;;17.11;100.00;100726.28;5022057;28;20065;-59
2021/06/05 01:18:08;;;;;;;6.72;4.20;;;;;;;17.08;100.00;100731.84;5036750;28;20037;-62
2021/06/05 01:21:00;;;;;;;5.90;4.40;;;;;;;17.05;100.00;100727.56;5029268;28;20408;-62
2021/06/05 01:24:05;;;;;;;9.05;4.70;;;;;;;17.05;100.00;100746.28;5032020;28;20060;-61
2021/06/05 01:26:36;;;;;;;8.35;6.18;;;;;;;17.08;100.00;100731.84;5025786;28;20049;-60
2021/06/05 01:29:23;;;;;;;8.50;6.68;;;;;;;17.07;100.00;100731.00;5039434;28;20255;-61
2021/06/05 01:31:59;;;;;;;13.43;8.77;;;;;;;17.03;100.00;100756.22;5030983;28;20049;-60
2021/06/05 01:34:30;;;;;;;13.40;9.32;;;;;;;17.05;100.00;100746.28;5032672;28;20428;-60
2021/06/05 01:36:57;;;;;;;14.57;9.20;;;;;;;17.08;100.00;100743.41;5033545;28;20313;-60
2021/06/05 01:39:30;;;;;;;15.10;10.27;;;;;;;17.08;100.00;100735.38;5034670;28;20099;-61
2021/06/05 01:42:01;;;;;;;15.45;11.25;;;;;;;17.14;100.00;100736.78;5038211;28;20056;-61
2021/06/05 01:44:32;;;;;;;14.55;10.65;;;;;;;17.14;100.00;100739.47;5033431;28;20075;-61
2021/06/05 01:46:58;;;;;;;15.75;11.45;;;;;;;17.12;100.00;100739.56;5033541;28;20052;-62
2021/06/05 01:49:25;;;;;;;17.73;11.82;;;;;;;17.11;100.00;100737.84;5031448;28;21806;-59
2021/06/05 01:51:57;;;;;;;16.52;11.27;;;;;;;17.10;100.00;100745.97;5027902;28;20049;-61
2021/06/05 01:54:32;;;;;;;16.48;12.25;;;;;;;17.11;100.00;100743.22;5034213;28;20525;-61
2021/06/05 01:57:04;;;;;;;17.20;12.02;;;;;;;17.13;100.00;100754.66;5036291;28;20049;-60
2021/06/05 01:59:31;;;;;;;16.25;11.85;;;;;;;17.12;100.00;100750.28;5044820;28;20051;-61
2021/06/05 02:01:58;;;;;;;13.75;11.02;;;;;;;17.14;100.00;100752.84;5038365;28;20135;-62
2021/06/05 02:04:25;;;;;;;15.60;12.00;;;;;;;17.15;100.00;100749.22;5033170;28;20053;-62
2021/06/05 02:06:52;;;;;;;18.63;12.43;;;;;;;17.12;100.00;100758.31;5030460;28;20057;-61
2021/06/05 02:09:22;;;;;;;14.32;11.70;;;;;;;17.12;100.00;100744.06;5033395;28;20048;-60
2021/06/05 02:11:53;;;;;;;16.15;11.43;;;;;;;17.13;100.00;100741.28;5030688;28;20073;-61
2021/06/05 02:14:34;;;;;;;19.67;14.05;;;;;;;17.11;100.00;100759.25;5033451;28;20045;-62
2021/06/05 02:17:03;;;;;;;19.80;12.98;;;;;;;17.11;100.00;100737.84;5024411;28;20056;-60
2021/06/05 02:19:33;;;;;;;17.50;13.27;;;;;;;17.08;100.00;100742.56;5039666;28;20056;-62
2021/06/05 02:22:04;;;;;;;21.30;12.90;;;;;;;17.05;100.00;100746.28;5031308;28;20049;-63
2021/06/05 02:24:37;;;;;;;18.77;14.25;;;;;;;17.02;100.00;100735.78;5029354;28;20049;-62
2021/06/05 02:27:05;;;;;;;21.50;14.80;;;;;;;16.98;100.00;100726.28;5036578;28;20107;-63
2021/06/05 02:29:34;;;;;;;22.48;15.52;;;;;;;16.97;100.00;100732.59;5018056;28;20450;-61
2021/06/05 02:32:04;;;;;;;20.40;15.43;;;;;;;16.93;100.00;100736.44;5039934;28;20056;-60
2021/06/05 02:34:31;;;;;;;18.00;14.45;;;;;;;16.92;100.00;100728.50;5030308;28;20049;-61
2021/06/05 02:37:01;;;;;;;24.13;18.02;;;;;;;16.89;100.00;100739.41;5036741;28;20045;-60
2021/06/05 02:39:28;;;;;;;16.58;13.73;;;;;;;16.88;100.00;100735.88;5038315;28;20063;-61
2021/06/05 02:41:56;;;;;;;20.58;15.25;;;;;;;16.86;100.00;100734.25;5037607;28;20052;-63
2021/06/05 02:44:29;;;;;;;20.52;14.75;;;;;;;16.86;100.00;100729.78;5042765;28;20076;-62
2021/06/05 02:46:58;;;;;;;18.98;14.80;;;;;;;16.86;100.00;100729.78;5023678;28;20144;-60
2021/06/05 02:49:31;;;;;;;20.70;14.23;;;;;;;16.82;100.00;100721.13;5039894;28;20139;-58
2021/06/05 02:52:02;;;;;;;19.58;14.10;;;;;;;16.81;100.00;100722.06;5034138;28;20056;-61
2021/06/05 02:54:29;;;;;;;18.52;14.70;;;;;;;16.77;100.00;100733.94;5038216;28;20048;-60
2021/06/05 02:56:56;;;;;;;17.38;13.60;;;;;;;16.70;100.00;100731.75;5040505;28;20049;-57
2021/06/05 02:59:25;;;;;;;16.83;13.70;;;;;;;16.67;100.00;100735.53;5037926;28;20048;-59
2021/06/05 03:01:52;;;;;;;17.30;13.95;;;;;;;16.67;100.00;100732.00;5046943;28;20052;-60
2021/06/05 03:04:20;;;;;;;17.13;13.60;;;;;;;16.66;100.00;100735.63;5043493;28;20042;-62
2021/06/05 03:06:47;;;;;;;18.75;13.68;;;;;;;16.64;100.00;100737.53;5034271;28;20041;-60
2021/06/05 03:09:18;;;;;;;19.17;13.23;;;;;;;16.67;100.00;100743.53;5050199;28;20060;-66
2021/06/05 03:11:46;;;;;;;16.75;12.48;;;;;;;16.64;100.00;100746.41;5042661;28;20674;-62
2021/06/05 03:14:14;;;;;;;20.10;14.25;;;;;;;16.59;100.00;100742.28;5046882;28;20052;-62
2021/06/05 03:16:41;;;;;;;19.50;14.20;;;;;;;16.57;100.00;100747.72;5057123;28;20224;-62
2021/06/05 03:19:07;;;;;;;20.80;15.10;;;;;;;16.59;100.00;100744.97;5033081;28;20489;-60
2021/06/05 03:21:34;;;;;;;19.02;14.15;;;;;;;16.61;100.00;100751.06;5035671;28;20048;-62
2021/06/05 03:24:01;;;;;;;22.45;15.25;;;;;;;16.64;100.00;100748.22;5038214;28;20499;-61
2021/06/05 03:26:27;;;;;;;21.13;14.45;;;;;;;16.64;100.00;100753.56;5036587;28;20527;-62
2021/06/05 03:28:54;;;;;;;18.75;13.73;;;;;;;16.65;100.00;100757.97;5037619;28;20044;-60
2021/06/05 03:31:21;;;;;;;16.10;13.25;;;;;;;16.64;100.00;100754.44;5030114;28;20059;-60
2021/06/05 03:33:49;;;;;;;17.80;13.15;;;;;;;16.68;100.00;100749.75;5033295;28;20053;-65
2021/06/05 03:36:18;;;;;;;21.45;13.13;;;;;;;16.71;100.00;100757.53;5029540;28;20053;-60
2021/06/05 03:38:45;;;;;;;17.23;13.82;;;;;;;16.73;100.00;100755.63;5029962;28;20056;-63
2021/06/05 03:41:13;;;;;;;18.33;12.48;;;;;;;16.77;100.00;100755.31;5035239;28;20053;-60
2021/06/05 03:43:40;;;;;;;19.15;14.10;;;;;;;16.81;100.00;100750.63;5030317;28;20045;-61
2021/06/05 03:46:08;;;;;;;17.88;13.43;;;;;;;16.85;100.00;100749.44;5038998;28;20057;-58
2021/06/05 03:48:38;;;;;;;18.77;13.75;;;;;;;16.88;100.00;100748.38;5034127;28;20132;-61
2021/06/05 03:51:06;;;;;;;18.20;13.90;;;;;;;16.93;100.00;100757.84;5028673;28;20060;-62
2021/06/05 03:53:33;;;;;;;20.80;14.20;;;;;;;16.91;100.00;100754.41;5034959;28;20053;-62
2021/06/05 03:56:00;;;;;;;18.35;13.75;;;;;;;16.95;100.00;100755.06;5030977;28;20097;-60
2021/06/05 03:58:39;;;;;;;21.10;14.00;;;;;;;17.00;100.00;100763.63;5040354;28;20048;-65
2021/06/05 04:01:08;;;;;;;19.65;14.85;;;;;;;16.98;100.00;100768.22;5036796;28;20049;-60
2021/06/05 04:03:35;;;;;;;17.13;13.45;;;;;;;16.99;100.00;100764.59;5034517;28;20472;-62
2021/06/05 04:06:02;;;;;;;19.50;13.43;;;;;;;17.00;100.00;100761.78;5036551;28;20242;-62
2021/06/05 04:08:28;;;;;;;17.77;12.50;;;;;;;16.98;100.00;100763.75;5029553;28;20045;-60
2021/06/05 04:10:55;;;;;;;15.98;11.23;;;;;;;16.98;100.00;100754.84;5029519;28;20044;-63
2021/06/05 04:13:22;;;;;;;16.63;12.25;;;;;;;17.02;100.00;100754.53;5031889;28;20144;-61
2021/06/05 04:15:48;;;;;;;14.50;11.13;;;;;;;17.09;100.00;100761.19;5026696;28;20425;-61
2021/06/05 04:18:20;;;;;;;17.45;12.13;;;;;;;17.14;100.00;100747.50;5038272;28;20051;-62
2021/06/05 04:20:47;;;;;;;14.38;10.75;;;;;;;17.20;100.00;100760.44;5028685;28;20056;-60
2021/06/05 04:23:14;;;;;;;17.00;11.70;;;;;;;17.27;100.00;100766.25;5034608;28;20071;-64
2021/06/05 04:25:41;;;;;;;15.13;11.20;;;;;;;17.33;100.00;100758.63;5031257;28;20059;-61
2021/06/05 04:28:10;;;;;;;16.20;11.00;;;;;;;17.43;100.00;100774.94;5032246;28;20049;-62
2021/06/05 04:30:38;;;;;;;17.08;11.38;;;;;;;17.54;100.00;100767.00;5044533;28;20075;-61
2021/06/05 04:33:06;;;;;;;16.00;11.00;;;;;;;17.64;100.00;100765.41;5039533;28;20364;-60
2021/06/05 04:35:33;;;;;;;14.57;11.68;;;;;;;17.72;100.00;100772.91;5037878;28;20548;-61
2021/06/05 04:37:59;;;;;;;16.27;12.02;;;;;;;17.86;100.00;100770.97;5034395;28;20048;-61
2021/06/05 04:40:27;;;;;;;16.08;11.35;;;;;;;17.99;100.00;100760.22;5036742;28;20954;-57
2021/06/05 04:42:53;;;;;;;15.38;11.13;;;;;;;18.02;100.00;100761.81;5039814;28;20503;-60
2021/06/05 04:45:21;;;;;;;15.52;11.27;;;;;;;18.11;100.00;100771.88;5028768;28;20049;-61
2021/06/05 04:47:48;;;;;;;15.02;10.82;;;;;;;18.17;99.77;100761.56;5041003;28;20037;-60
2021/06/05 04:50:18;;;;;;;15.80;12.45;;;;;;;18.13;98.85;100764.59;5029478;28;20138;-61
2021/06/05 04:52:45;;;;;;;14.98;11.75;;;;;;;18.14;99.00;100758.25;5028732;28;20060;-64
2021/06/05 04:55:11;;;;;;;14.93;12.10;;;;;;;18.22;97.96;100758.56;5036175;28;20041;-61
2021/06/05 04:57:52;;;;;;;14.27;12.68;;;;;;;18.27;96.53;100763.56;5036798;28;20068;-60
2021/06/05 05:00:33;;;;;;;16.90;12.90;;;;;;;18.22;96.81;100761.25;5035568;28;20144;-61
2021/06/05 05:03:00;;;;;;;15.85;12.45;;;;;;;18.11;97.12;100770.03;5034702;28;20053;-63
2021/06/05 05:05:28;;;;;;;17.10;12.45;;;;;;;18.06;97.63;100755.28;5037871;28;20516;-62
2021/06/05 05:07:55;;;;;;;16.63;12.63;;;;;;;18.08;96.75;100764.09;5038459;28;20052;-59
2021/06/05 05:10:25;;;;;;;15.50;12.98;;;;;;;18.17;96.82;100766.94;5029281;28;20045;-60
2021/06/05 05:12:51;;;;;;;17.85;13.05;;;;;;;18.32;96.85;100756.06;5013878;28;20045;-60
2021/06/05 05:15:18;;;;;;;16.08;13.10;;;;;;;18.49;96.92;100761.03;5039324;28;20059;-61
2021/06/05 05:17:45;;;;;;;16.33;12.38;;;;;;;18.63;96.32;100747.50;5026977;28;20053;-59
2021/06/05 05:20:15;;;;;;;14.90;12.13;;;;;;;18.87;95.64;100758.22;5029552;28;20522;-61
2021/06/05 05:22:41;;;;;;;14.63;11.50;;;;;;;19.12;95.11;100759.88;5028159;28;20899;-60
2021/06/05 05:25:10;;;;;;;13.45;10.27;;;;;;;19.34;95.02;100754.56;5037972;28;20129;-62
2021/06/05 05:27:37;;;;;;;13.90;11.00;;;;;;;19.46;92.92;100752.75;5039424;28;20073;-60
2021/06/05 05:30:08;;;;;;;13.05;11.27;;;;;;;19.61;91.46;100754.25;5031588;28;20041;-59
2021/06/05 05:32:35;;;;;;;13.80;11.68;;;;;;;19.75;89.55;100754.03;5039436;28;20413;-62
2021/06/05 05:35:02;;;;;;;15.30;10.13;;;;;;;19.86;88.65;100751.31;5029603;28;20495;-60
2021/06/05 05:37:28;;;;;;;14.43;10.25;;;;;;;19.95;87.76;100755.97;5035410;28;20396;-62
2021/06/05 05:39:55;;;;;;;12.35;9.77;;;;;;;19.99;88.02;100753.88;5037292;28;20045;-61
2021/06/05 05:42:21;;;;;;;13.00;10.52;;;;;;;20.06;85.59;100756.94;5028977;28;20045;-62
2021/06/05 05:44:48;;;;;;;9.70;8.60;;;;;;;20.12;86.56;100753.75;5039159;28;22657;-62
2021/06/05 05:47:14;;;;;;;13.02;9.35;;;;;;;20.23;85.13;100759.97;5032821;28;20049;-62
2021/06/05 05:49:41;;;;;;;10.15;8.85;;;;;;;20.36;84.28;100765.22;5040569;28;20069;-60
2021/06/05 05:52:07;;;;;;;10.95;8.18;;;;;;;20.41;81.88;100754.97;5028397;28;20049;-63
2021/06/05 05:54:34;;;;;;;7.82;6.95;;;;;;;20.49;81.50;100752.47;5030896;28;24108;-62
2021/06/05 05:57:00;;;;;;;7.97;5.22;;;;;;;20.59;80.82;100749.91;5039444;28;20063;-61
2021/06/05 05:59:27;;;;;;;6.05;5.00;;;;;;;20.81;79.94;100748.94;5030614;28;20135;-63
2021/06/05 06:01:53;;;;;;;6.43;4.00;;;;;;;21.09;77.01;100751.03;5038416;28;20052;-61
2021/06/05 06:04:20;;;;;;;6.43;4.43;;;;;;;21.44;74.70;100755.22;5042386;28;20056;-61
2021/06/05 06:06:47;;;;;;;4.63;3.83;;;;;;;22.17;72.33;100752.34;5038807;28;20053;-61
2021/06/05 06:09:15;;;;;;;5.55;3.80;;;;;;;22.81;70.16;100764.56;5043048;28;20055;-61
2021/06/05 06:11:46;;;;;;;6.00;4.07;;;;;;;23.11;67.35;100767.09;5032815;28;20053;-60
2021/06/05 06:14:14;;;;;;;4.43;3.63;;;;;;;24.90;63.54;100759.47;5049988;28;20128;-62
2021/06/05 06:16:41;;;;;;;6.22;3.50;;;;;;;26.35;58.51;100763.34;5035704;28;20053;-63
2021/06/05 06:19:12;;;;;;;4.22;3.20;;;;;;;27.81;53.47;100766.16;5032944;28;20049;-62
2021/06/05 06:21:41;;;;;;;3.50;3.15;;;;;;;28.08;51.49;100764.88;5020147;28;20051;-60
2021/06/05 06:24:09;;;;;;;5.13;3.67;;;;;;;27.08;52.33;100766.22;5036278;28;20051;-61
2021/06/05 06:26:36;;;;;;;4.85;2.90;;;;;;;26.00;56.02;100770.66;5041020;28;20734;-61
2021/06/05 06:31:43;;;;;;;3.85;2.28;;;;;;;24.04;60.30;100775.28;5046637;28;21259;-62
2021/06/05 06:34:10;;;;;;;4.20;2.33;;;;;;;23.41;63.24;100775.03;5045187;28;20045;-62
2021/06/05 06:36:42;;;;;;;3.47;2.33;;;;;;;23.11;64.85;100772.50;5036134;28;20060;-59
2021/06/05 06:39:10;;;;;;;3.00;2.35;;;;;;;23.06;65.59;100769.38;5038946;28;20053;-62
2021/06/05 06:41:37;;;;;;;3.30;2.72;;;;;;;22.97;66.14;100767.53;5039280;28;20060;-62
2021/06/05 06:44:05;;;;;;;5.07;3.28;;;;;;;22.87;67.20;100775.63;5052961;28;20463;-63
2021/06/05 06:46:36;;;;;;;5.70;3.40;;;;;;;22.62;67.63;100777.00;5060886;28;20053;-60
2021/06/05 06:49:05;;;;;;;6.13;4.40;;;;;;;22.36;69.49;100782.03;5017156;28;20136;-62
2021/06/05 06:51:32;;;;;;;5.95;3.95;;;;;;;22.09;71.25;100781.81;5039647;28;20057;-63
2021/06/05 06:53:58;;;;;;;4.60;3.95;;;;;;;21.85;72.23;100783.97;5033685;28;20051;-62
2021/06/05 06:56:25;;;;;;;4.63;3.95;;;;;;;21.59;72.15;100779.00;5033737;28;20785;-62
2021/06/05 06:58:52;;;;;;;5.35;4.30;;;;;;;21.40;73.93;100787.00;5037186;28;20061;-64
2021/06/05 07:01:19;;;;;;;6.88;5.80;;;;;;;21.27;75.32;100792.56;5030028;28;20056;-62
2021/06/05 07:03:46;;;;;;;8.07;6.47;;;;;;;21.13;75.83;100787.47;5036432;28;20484;-62
2021/06/05 07:06:14;;;;;;;8.05;5.80;;;;;;;21.04;76.33;100788.25;5036763;28;20045;-62
2021/06/05 07:08:42;;;;;;;7.70;6.60;;;;;;;20.99;76.27;100785.09;5031405;28;20060;-61
2021/06/05 07:11:18;;;;;;;8.57;6.28;;;;;;;20.97;77.32;100792.44;5036989;28;20049;-64
2021/06/05 07:13:46;;;;;;;7.35;6.60;;;;;;;20.91;77.59;100784.88;5025275;28;20064;-62
2021/06/05 07:16:13;;;;;;;7.63;6.57;;;;;;;20.87;77.95;100788.81;5041498;28;20060;-61
2021/06/05 07:18:40;;;;;;;9.65;7.07;;;;;;;20.84;78.55;100775.59;5033867;28;20876;-61
2021/06/05 07:21:09;;;;;;;9.43;7.35;;;;;;;20.81;78.23;100781.22;5030442;28;20065;-63
2021/06/05 07:23:37;;;;;;;11.10;7.70;;;;;;;20.80;79.04;100792.97;5036169;28;20060;-63
2021/06/05 07:26:09;;;;;;;8.23;7.43;;;;;;;20.76;79.32;100788.88;5033587;28;20531;-62
2021/06/05 07:28:39;;;;;;;8.85;7.15;;;;;;;20.72;79.07;100787.41;5026404;28;20436;-64
2021/06/05 07:31:08;;;;;;;11.25;7.15;;;;;;;20.67;78.73;100791.31;5035650;28;20052;-61
2021/06/05 07:33:36;;;;;;;11.05;7.88;;;;;;;20.74;79.69;100790.81;5032609;28;20061;-62
2021/06/05 07:36:05;;;;;;;11.95;8.85;;;;;;;20.75;78.35;100792.53;5035399;28;20084;-62
2021/06/05 07:38:32;;;;;;;10.75;8.68;;;;;;;20.73;78.89;100792.66;5029275;28;20048;-61
2021/06/05 07:40:59;;;;;;;9.93;8.05;;;;;;;20.79;79.04;100793.97;5033767;28;20316;-62
2021/06/05 07:43:28;;;;;;;9.10;7.88;;;;;;;20.89;78.19;100797.63;5030524;28;20060;-61
2021/06/05 07:45:57;;;;;;;9.60;7.33;;;;;;;20.96;78.41;100793.41;5034267;28;20085;-61
2021/06/05 07:48:25;;;;;;;8.35;7.03;;;;;;;21.04;77.19;100799.03;5035581;28;20102;-62
2021/06/05 07:50:52;;;;;;;7.05;6.07;;;;;;;21.12;76.90;100791.13;5029434;28;20053;-57
2021/06/05 07:53:18;;;;;;;7.35;5.97;;;;;;;21.27;75.90;100789.00;5044881;28;20415;-60
2021/06/05 07:55:45;;;;;;;6.60;5.88;;;;;;;21.40;75.08;100795.06;5034535;28;20053;-61
2021/06/05 07:58:12;;;;;;;8.35;5.57;;;;;;;21.55;74.72;100790.22;5039692;28;20045;-61
2021/06/05 08:00:39;;;;;;;8.80;5.57;;;;;;;21.64;74.16;100787.56;5030468;28;20056;-63
2021/06/05 08:03:08;;;;;;;7.28;6.10;;;;;;;21.73;73.48;100791.28;5036615;28;20068;-61
2021/06/05 08:05:36;;;;;;;8.88;6.30;;;;;;;21.74;72.90;100792.13;5023819;28;20462;-60
2021/06/05 08:08:04;;;;;;;6.53;5.72;;;;;;;21.91;73.17;100786.97;5023787;28;20056;-61
2021/06/05 08:10:32;;;;;;;6.20;5.68;;;;;;;22.03;70.87;100785.94;5029680;28;20519;-62
2021/06/05 08:12:58;;;;;;;7.55;6.78;;;;;;;22.20;70.69;100784.41;5034647;28;20045;-60
2021/06/05 08:15:31;;;;;;;8.02;7.22;;;;;;;22.39;69.90;100783.63;5034071;28;20081;-56
2021/06/05 08:17:58;;;;;;;10.50;7.97;;;;;;;22.58;68.81;100789.06;5035923;28;20071;-57
2021/06/05 08:20:30;;;;;;;10.07;7.80;;;;;;;22.85;69.10;100783.00;5039287;28;20043;-55
2021/06/05 08:22:57;;;;;;;11.77;8.18;;;;;;;23.27;67.24;100786.28;5034369;28;20524;-56
2021/06/05 08:25:25;;;;;;;10.02;7.60;;;;;;;23.49;66.78;100778.81;5037844;28;20053;-59
2021/06/05 08:27:51;;;;;;;8.65;7.20;;;;;;;23.67;65.45;100787.94;5036967;28;20458;-57
2021/06/05 08:30:24;;;;;;;10.10;7.18;;;;;;;23.70;64.63;100790.34;5041238;28;20057;-63
2021/06/05 08:32:51;;;;;;;7.43;6.15;;;;;;;23.73;65.42;100785.50;5034856;28;20060;-57
2021/06/05 08:35:18;;;;;;;7.40;6.22;;;;;;;23.87;65.23;100789.56;5038221;28;20114;-56
2021/06/05 08:37:45;;;;;;;8.90;5.97;;;;;;;24.31;64.29;100779.84;5034347;28;20052;-53
2021/06/05 08:40:15;;;;;;;6.20;5.60;;;;;;;24.62;62.62;100796.63;5036362;28;20053;-56
2021/06/05 08:42:49;;;;;;;7.68;5.78;;;;;;;24.63;61.68;100800.19;5044375;28;20065;-59
2021/06/05 08:45:22;;;;;;;6.00;5.50;;;;;;;24.77;60.39;100786.97;5036327;28;20427;-58
2021/06/05 08:47:48;;;;;;;6.35;5.75;;;;;;;24.99;59.75;100790.25;5042006;28;20052;-57
2021/06/05 08:50:20;;;;;;;7.72;6.25;;;;;;;24.96;59.13;100788.72;5039309;28;20053;-59
2021/06/05 08:53:15;;;;;;;6.35;5.32;;;;;;;24.92;60.17;100784.56;5043724;28;20091;-58
2021/06/05 08:55:55;;;;;;;7.55;4.97;;;;;;;24.81;59.39;100790.22;5020546;28;20150;-58
2021/06/05 08:58:32;;;;;;;5.78;4.18;;;;;;;24.63;61.54;100789.34;5038040;28;20060;-57
2021/06/05 09:01:02;;;;;;;8.20;4.97;;;;;;;24.59;61.52;100793.34;5042015;28;20068;-56
2021/06/05 09:03:32;;;;;;;5.53;4.85;;;;;;;24.71;60.74;100795.69;5038958;28;20083;-57
2021/06/05 09:06:04;;;;;;;9.85;8.38;;;;;;;24.91;60.08;100792.84;5041205;28;20109;-57
2021/06/05 09:08:31;;;;;;;9.25;7.57;;;;;;;25.08;59.21;100787.47;5052244;28;20041;-56
2021/06/05 09:11:09;;;;;;;8.57;6.35;;;;;;;25.32;57.71;100786.81;5047296;28;20053;-56
2021/06/05 09:13:37;;;;;;;16.08;11.00;;;;;;;25.40;57.26;100780.59;5039010;28;20426;-56
2021/06/05 09:16:18;;;;;;;6.32;4.75;;;;;;;25.42;57.38;100779.44;5042804;28;20049;-59
2021/06/05 09:19:03;;;;;;;8.88;6.18;;;;;;;25.47;57.65;100787.94;5038134;28;20100;-56
2021/06/05 09:21:40;;;;;;;5.57;4.20;;;;;;;25.62;56.03;100780.13;5039303;28;20406;-57
2021/06/05 09:24:12;;;;;;;17.75;13.15;;;;;;;25.64;56.17;100782.66;5037759;28;20107;-54
2021/06/05 09:26:40;;;;;;;17.02;13.07;;;;;;;25.57;55.23;100781.56;5036763;28;20056;-57
2021/06/05 09:29:17;;;;;;;5.47;4.20;;;;;;;25.53;56.33;100794.56;5038583;28;20041;-58
2021/06/05 09:32:09;;;;;;;8.82;7.30;;;;;;;25.42;56.20;100789.41;5035174;28;20053;-56
2021/06/05 09:34:48;;;;;;;9.48;7.50;;;;;;;25.06;56.44;100789.47;5036694;28;20041;-53
2021/06/05 09:37:45;;;;;;;7.65;6.47;;;;;;;24.86;57.90;100793.31;5045948;28;20052;-55
2021/06/05 09:40:16;;;;;;;4.75;3.20;;;;;;;25.03;58.58;100797.91;5047190;28;20041;-57
2021/06/05 09:42:46;;;;;;;4.60;4.10;;;;;;;25.18;57.68;100799.03;5046895;28;20420;-57
2021/06/05 09:45:21;;;;;;;;;;;;;;;25.35;57.36;100791.06;5045039;28;20496;-58
2021/06/05 09:47:48;;;;;;;4.40;3.17;;;;;;;25.38;55.96;100798.88;5048667;28;19924;-58
2021/06/05 09:50:19;;;;;;;28.10;19.73;;;;;;;25.16;57.02;100797.53;5043414;28;20563;-59
2021/06/05 09:52:46;;;;;;;16.33;12.07;;;;;;;24.96;56.86;100791.41;5040614;28;20053;-56
2021/06/05 09:55:15;;;;;;;5.10;3.53;;;;;;;24.94;58.13;100798.00;5038468;28;20045;-56
2021/06/05 09:57:44;;;;;;;7.17;4.23;;;;;;;24.99;58.53;100798.38;5044857;28;20083;-55
2021/06/05 10:00:34;;;;;;;6.93;5.07;;;;;;;25.05;58.00;100797.75;5037678;28;20049;-58
2021/06/05 10:03:25;;;;;;;3.50;3.20;;;;;;;25.05;56.62;100797.75;5043827;28;20735;-56
2021/06/05 10:05:52;;;;;;;5.82;3.20;;;;;;;25.05;57.30;100795.88;5042989;28;20045;-63
2021/06/05 10:08:30;;;;;;;3.72;3.00;;;;;;;25.04;57.00;100798.75;5052590;28;20033;-61
2021/06/05 10:11:30;;;;;;;3.05;2.53;;;;;;;25.10;56.25;100801.69;5046082;28;20416;-63
2021/06/05 10:14:06;;;;;;;;;;;;;;;25.23;56.24;100805.88;5046036;28;20263;-61
2021/06/05 10:16:36;;;;;;;4.10;2.78;;;;;;;25.46;55.41;100802.53;5056056;28;19928;-63
2021/06/05 10:19:15;;;;;;;4.20;2.38;;;;;;;25.64;53.91;100790.81;5052106;28;20042;-62
2021/06/05 10:21:45;;;;;;;4.22;2.50;;;;;;;25.75;53.65;100795.94;5053998;28;20511;-63
2021/06/05 10:24:30;;;;;;;3.88;2.70;;;;;;;25.92;53.91;100789.63;5047315;28;20063;-63
2021/06/05 10:27:00;;;;;;;3.92;2.63;;;;;;;26.25;53.55;100790.63;5026884;28;20060;-62
2021/06/05 10:29:34;;;;;;;4.07;2.95;;;;;;;26.40;52.48;100791.72;5042842;28;20059;-63
2021/06/05 10:32:05;;;;;;;4.28;2.92;;;;;;;26.16;51.54;100778.84;5042432;28;20076;-62
2021/06/05 10:34:40;;;;;;;3.13;2.50;;;;;;;25.99;53.67;100787.94;5038398;28;20531;-62
2021/06/05 10:37:16;;;;;;;4.90;2.60;;;;;;;25.90;54.13;100788.06;5042403;28;20050;-63
2021/06/05 10:39:45;;;;;;;6.03;2.78;;;;;;;25.90;54.27;100793.50;5040962;28;20056;-61
2021/06/05 10:42:36;;;;;;;3.33;2.73;;;;;;;26.04;54.13;100788.31;5046393;28;20049;-61
2021/06/05 10:45:06;;;;;;;3.00;2.78;;;;;;;26.21;54.07;100790.09;5040571;28;20059;-60
2021/06/05 10:48:01;;;;;;;4.25;2.90;;;;;;;26.16;54.15;100787.00;5042966;28;20501;-62
2021/06/05 10:50:34;;;;;;;3.20;2.60;;;;;;;26.24;53.67;100785.34;5039662;28;20499;-62
2021/06/05 10:53:11;;;;;;;4.43;2.53;;;;;;;26.09;53.31;100782.41;5038249;28;20735;-62
2021/06/05 10:56:24;;;;;;;5.43;2.90;;;;;;;26.11;53.47;100781.22;5043552;28;20056;-62
2021/06/05 10:58:53;;;;;;;2.78;2.50;;;;;;;26.20;54.13;100774.81;5009972;28;20046;-62
2021/06/05 11:01:29;;;;;;;4.10;2.83;;;;;;;26.16;53.08;100773.44;5042316;28;20053;-62
2021/06/05 11:03:58;;;;;;;3.65;2.83;;;;;;;26.11;52.73;100764.09;5042850;28;20056;-61
2021/06/05 11:06:46;;;;;;;2.83;2.50;;;;;;;26.09;54.94;100763.41;5041168;28;20144;-62
2021/06/05 11:09:31;;;;;;;2.90;2.60;;;;;;;26.29;53.48;100762.13;5042636;28;20063;-61
2021/06/05 11:12:00;;;;;;;3.08;2.78;;;;;;;26.53;52.75;100758.66;5040916;28;20382;-62
2021/06/05 11:14:36;;;;;;;4.50;2.50;;;;;;;26.75;51.93;100758.03;5040207;28;20054;-62
2021/06/05 11:17:09;;;;;;;3.72;2.90;;;;;;;26.78;51.81;100751.38;5041545;28;20515;-65
2021/06/05 11:19:48;;;;;;;2.70;2.45;;;;;;;26.71;51.47;100744.94;5041946;28;20483;-62
2021/06/05 11:22:20;;;;;;;5.85;2.90;;;;;;;26.50;50.63;100738.09;5037701;28;20053;-62
2021/06/05 11:25:05;;;;;;;3.08;2.30;;;;;;;26.31;52.29;100737.53;5038744;28;20081;-62
2021/06/05 11:27:38;;;;;;;2.97;2.53;;;;;;;26.18;52.97;100736.13;5036674;28;20090;-59
2021/06/05 11:30:21;;;;;;;5.25;3.25;;;;;;;26.10;53.09;100738.81;5041094;28;20145;-58
2021/06/05 11:33:00;;;;;;;4.70;3.08;;;;;;;26.06;52.09;100739.31;5038974;28;20052;-59
2021/06/05 11:35:45;;;;;;;3.65;2.40;;;;;;;25.94;53.36;100740.63;5036863;28;20060;-60